sensor_id;sensor_type;location;lat;lon;timestamp;P1;durP1;ratioP1;P2;durP2;ratioP2
24216;SDS011;12356;49.386;8.688;2023-03-23T00:00:17;2.38;;;1.65;;
24216;SDS011;12356;49.386;8.688;2023-03-23T00:02:49;2.22;;;1.55;;
24216;SDS011;12356;49.386;8.688;2023-03-23T00:05:19;3.33;;;1.73;;
24216;SDS011;12356;49.386;8.688;2023-03-23T00:07:50;2.42;;;1.70;;
24216;SDS011;12356;49.386;8.688;2023-03-23T00:10:22;2.33;;;1.75;;
24216;SDS011;12356;49.386;8.688;2023-03-23T00:12:54;4.43;;;1.83;;
24216;SDS011;12356;49.386;8.688;2023-03-23T00:15:26;2.08;;;1.58;;
24216;SDS011;12356;49.386;8.688;2023-03-23T00:18:00;2.80;;;1.40;;
24216;SDS011;12356;49.386;8.688;2023-03-23T00:20:34;5.45;;;1.80;;
24216;SDS011;12356;49.386;8.688;2023-03-23T00:23:10;2.25;;;1.40;;
24216;SDS011;12356;49.386;8.688;2023-03-23T00:25:41;3.65;;;1.45;;
24216;SDS011;12356;49.386;8.688;2023-03-23T00:28:11;3.42;;;1.40;;
24216;SDS011;12356;49.386;8.688;2023-03-23T00:30:42;4.05;;;1.35;;
24216;SDS011;12356;49.386;8.688;2023-03-23T00:33:14;2.20;;;1.47;;
24216;SDS011;12356;49.386;8.688;2023-03-23T00:35:46;2.53;;;1.30;;
24216;SDS011;12356;49.386;8.688;2023-03-23T00:38:17;1.80;;;1.23;;
24216;SDS011;12356;49.386;8.688;2023-03-23T00:40:49;2.85;;;1.60;;
24216;SDS011;12356;49.386;8.688;2023-03-23T00:43:20;2.70;;;1.33;;
24216;SDS011;12356;49.386;8.688;2023-03-23T00:45:54;2.28;;;1.25;;
24216;SDS011;12356;49.386;8.688;2023-03-23T00:48:27;3.33;;;1.33;;
24216;SDS011;12356;49.386;8.688;2023-03-23T00:50:59;1.73;;;1.25;;
24216;SDS011;12356;49.386;8.688;2023-03-23T00:53:33;2.95;;;1.40;;
24216;SDS011;12356;49.386;8.688;2023-03-23T00:56:05;4.85;;;1.52;;
24216;SDS011;12356;49.386;8.688;2023-03-23T00:58:37;1.73;;;1.10;;
24216;SDS011;12356;49.386;8.688;2023-03-23T01:01:07;2.25;;;1.23;;
24216;SDS011;12356;49.386;8.688;2023-03-23T01:03:39;2.17;;;1.20;;
24216;SDS011;12356;49.386;8.688;2023-03-23T01:06:10;2.25;;;1.30;;
24216;SDS011;12356;49.386;8.688;2023-03-23T01:08:44;2.20;;;1.10;;
24216;SDS011;12356;49.386;8.688;2023-03-23T01:11:19;1.83;;;1.17;;
24216;SDS011;12356;49.386;8.688;2023-03-23T01:13:50;2.58;;;1.20;;
24216;SDS011;12356;49.386;8.688;2023-03-23T01:16:21;1.77;;;1.10;;
24216;SDS011;12356;49.386;8.688;2023-03-23T01:18:52;1.88;;;1.20;;
24216;SDS011;12356;49.386;8.688;2023-03-23T01:21:22;3.65;;;1.20;;
24216;SDS011;12356;49.386;8.688;2023-03-23T01:23:54;1.67;;;1.20;;
24216;SDS011;12356;49.386;8.688;2023-03-23T01:26:26;2.15;;;1.17;;
24216;SDS011;12356;49.386;8.688;2023-03-23T01:31:29;4.05;;;1.20;;
24216;SDS011;12356;49.386;8.688;2023-03-23T01:33:59;2.92;;;1.25;;
24216;SDS011;12356;49.386;8.688;2023-03-23T01:36:30;2.85;;;1.20;;
24216;SDS011;12356;49.386;8.688;2023-03-23T01:39:03;2.13;;;1.25;;
24216;SDS011;12356;49.386;8.688;2023-03-23T01:41:35;2.20;;;1.10;;
24216;SDS011;12356;49.386;8.688;2023-03-23T01:44:07;2.67;;;1.20;;
24216;SDS011;12356;49.386;8.688;2023-03-23T01:46:46;2.65;;;1.30;;
24216;SDS011;12356;49.386;8.688;2023-03-23T01:49:19;1.40;;;1.10;;
24216;SDS011;12356;49.386;8.688;2023-03-23T01:51:54;2.90;;;1.15;;
24216;SDS011;12356;49.386;8.688;2023-03-23T01:54:28;1.45;;;1.10;;
24216;SDS011;12356;49.386;8.688;2023-03-23T01:57:01;2.50;;;1.30;;
24216;SDS011;12356;49.386;8.688;2023-03-23T01:59:36;1.52;;;1.10;;
24216;SDS011;12356;49.386;8.688;2023-03-23T02:02:07;2.53;;;1.23;;
24216;SDS011;12356;49.386;8.688;2023-03-23T02:04:38;1.80;;;1.10;;
24216;SDS011;12356;49.386;8.688;2023-03-23T02:07:12;2.47;;;1.10;;
24216;SDS011;12356;49.386;8.688;2023-03-23T02:09:45;2.20;;;1.67;;
24216;SDS011;12356;49.386;8.688;2023-03-23T02:12:15;1.58;;;1.20;;
24216;SDS011;12356;49.386;8.688;2023-03-23T02:14:46;2.83;;;1.25;;
24216;SDS011;12356;49.386;8.688;2023-03-23T02:17:35;1.63;;;1.10;;
24216;SDS011;12356;49.386;8.688;2023-03-23T02:20:30;3.28;;;1.30;;
24216;SDS011;12356;49.386;8.688;2023-03-23T02:23:28;1.60;;;1.20;;
24216;SDS011;12356;49.386;8.688;2023-03-23T02:26:37;4.28;;;1.30;;
24216;SDS011;12356;49.386;8.688;2023-03-23T02:29:22;2.90;;;1.30;;
24216;SDS011;12356;49.386;8.688;2023-03-23T02:34:41;2.53;;;1.33;;
24216;SDS011;12356;49.386;8.688;2023-03-23T02:37:24;1.70;;;1.17;;
24216;SDS011;12356;49.386;8.688;2023-03-23T02:42:42;1.90;;;1.25;;
24216;SDS011;12356;49.386;8.688;2023-03-23T02:45:17;1.98;;;1.30;;
24216;SDS011;12356;49.386;8.688;2023-03-23T02:47:52;1.98;;;1.35;;
24216;SDS011;12356;49.386;8.688;2023-03-23T02:50:24;1.63;;;1.35;;
24216;SDS011;12356;49.386;8.688;2023-03-23T02:52:56;2.95;;;1.20;;
24216;SDS011;12356;49.386;8.688;2023-03-23T02:55:28;1.58;;;1.30;;
24216;SDS011;12356;49.386;8.688;2023-03-23T02:58:00;1.40;;;1.30;;
24216;SDS011;12356;49.386;8.688;2023-03-23T03:00:32;2.60;;;1.40;;
24216;SDS011;12356;49.386;8.688;2023-03-23T03:03:02;1.75;;;1.42;;
24216;SDS011;12356;49.386;8.688;2023-03-23T03:05:38;2.20;;;1.33;;
24216;SDS011;12356;49.386;8.688;2023-03-23T03:08:35;2.08;;;1.20;;
24216;SDS011;12356;49.386;8.688;2023-03-23T03:11:19;3.33;;;1.55;;
24216;SDS011;12356;49.386;8.688;2023-03-23T03:13:58;1.67;;;1.25;;
24216;SDS011;12356;49.386;8.688;2023-03-23T03:16:41;1.85;;;1.40;;
24216;SDS011;12356;49.386;8.688;2023-03-23T03:19:24;1.52;;;1.25;;
24216;SDS011;12356;49.386;8.688;2023-03-23T03:21:58;1.90;;;1.33;;
24216;SDS011;12356;49.386;8.688;2023-03-23T03:24:29;2.28;;;1.40;;
24216;SDS011;12356;49.386;8.688;2023-03-23T03:27:01;2.05;;;1.50;;
24216;SDS011;12356;49.386;8.688;2023-03-23T03:29:35;2.38;;;1.40;;
24216;SDS011;12356;49.386;8.688;2023-03-23T03:32:08;1.90;;;1.30;;
24216;SDS011;12356;49.386;8.688;2023-03-23T03:34:44;2.03;;;1.40;;
24216;SDS011;12356;49.386;8.688;2023-03-23T03:37:14;2.65;;;1.50;;
24216;SDS011;12356;49.386;8.688;2023-03-23T03:39:46;2.17;;;1.40;;
24216;SDS011;12356;49.386;8.688;2023-03-23T03:42:16;1.92;;;1.40;;
24216;SDS011;12356;49.386;8.688;2023-03-23T03:44:47;5.90;;;1.80;;
24216;SDS011;12356;49.386;8.688;2023-03-23T03:47:17;2.42;;;1.70;;
24216;SDS011;12356;49.386;8.688;2023-03-23T03:49:48;8.02;;;1.60;;
24216;SDS011;12356;49.386;8.688;2023-03-23T03:52:18;3.55;;;1.70;;
24216;SDS011;12356;49.386;8.688;2023-03-23T03:54:49;1.83;;;1.50;;
24216;SDS011;12356;49.386;8.688;2023-03-23T03:57:20;2.83;;;1.50;;
24216;SDS011;12356;49.386;8.688;2023-03-23T03:59:51;3.00;;;1.77;;
24216;SDS011;12356;49.386;8.688;2023-03-23T04:02:22;2.28;;;1.50;;
24216;SDS011;12356;49.386;8.688;2023-03-23T04:04:53;2.25;;;1.52;;
24216;SDS011;12356;49.386;8.688;2023-03-23T04:07:23;2.90;;;1.75;;
24216;SDS011;12356;49.386;8.688;2023-03-23T04:09:56;4.32;;;1.70;;
24216;SDS011;12356;49.386;8.688;2023-03-23T04:12:26;2.10;;;1.67;;
24216;SDS011;12356;49.386;8.688;2023-03-23T04:14:57;2.25;;;1.45;;
24216;SDS011;12356;49.386;8.688;2023-03-23T04:17:28;2.10;;;1.58;;
24216;SDS011;12356;49.386;8.688;2023-03-23T04:19:58;2.75;;;1.70;;
24216;SDS011;12356;49.386;8.688;2023-03-23T04:22:30;2.75;;;1.73;;
24216;SDS011;12356;49.386;8.688;2023-03-23T04:25:00;4.30;;;1.90;;
24216;SDS011;12356;49.386;8.688;2023-03-23T04:27:35;2.33;;;1.52;;
24216;SDS011;12356;49.386;8.688;2023-03-23T04:30:06;2.85;;;1.60;;
24216;SDS011;12356;49.386;8.688;2023-03-23T04:32:38;3.78;;;1.88;;
24216;SDS011;12356;49.386;8.688;2023-03-23T04:35:12;3.00;;;1.55;;
24216;SDS011;12356;49.386;8.688;2023-03-23T04:37:44;2.85;;;2.00;;
24216;SDS011;12356;49.386;8.688;2023-03-23T04:40:15;2.58;;;1.70;;
24216;SDS011;12356;49.386;8.688;2023-03-23T04:42:46;2.88;;;1.98;;
24216;SDS011;12356;49.386;8.688;2023-03-23T04:45:19;3.80;;;1.70;;
24216;SDS011;12356;49.386;8.688;2023-03-23T04:47:51;3.10;;;1.90;;
24216;SDS011;12356;49.386;8.688;2023-03-23T04:50:28;1.98;;;1.70;;
24216;SDS011;12356;49.386;8.688;2023-03-23T04:53:01;3.65;;;2.08;;
24216;SDS011;12356;49.386;8.688;2023-03-23T04:55:36;3.00;;;2.00;;
24216;SDS011;12356;49.386;8.688;2023-03-23T04:58:08;2.63;;;1.80;;
24216;SDS011;12356;49.386;8.688;2023-03-23T05:00:39;4.30;;;2.08;;
24216;SDS011;12356;49.386;8.688;2023-03-23T05:03:10;3.80;;;2.00;;
24216;SDS011;12356;49.386;8.688;2023-03-23T05:05:41;2.60;;;2.00;;
24216;SDS011;12356;49.386;8.688;2023-03-23T05:08:13;3.40;;;2.40;;
24216;SDS011;12356;49.386;8.688;2023-03-23T05:10:51;3.33;;;2.30;;
24216;SDS011;12356;49.386;8.688;2023-03-23T05:13:23;2.78;;;2.22;;
24216;SDS011;12356;49.386;8.688;2023-03-23T05:15:53;2.95;;;2.15;;
24216;SDS011;12356;49.386;8.688;2023-03-23T05:18:24;3.75;;;2.42;;
24216;SDS011;12356;49.386;8.688;2023-03-23T05:20:59;3.42;;;2.30;;
24216;SDS011;12356;49.386;8.688;2023-03-23T05:23:30;3.25;;;2.30;;
24216;SDS011;12356;49.386;8.688;2023-03-23T05:26:00;4.45;;;2.50;;
24216;SDS011;12356;49.386;8.688;2023-03-23T05:28:32;3.20;;;2.58;;
24216;SDS011;12356;49.386;8.688;2023-03-23T05:31:03;3.75;;;2.70;;
24216;SDS011;12356;49.386;8.688;2023-03-23T05:33:34;5.35;;;2.58;;
24216;SDS011;12356;49.386;8.688;2023-03-23T05:36:06;3.55;;;2.70;;
24216;SDS011;12356;49.386;8.688;2023-03-23T05:38:40;3.85;;;2.90;;
24216;SDS011;12356;49.386;8.688;2023-03-23T05:41:15;4.95;;;2.67;;
24216;SDS011;12356;49.386;8.688;2023-03-23T05:43:45;3.67;;;2.80;;
24216;SDS011;12356;49.386;8.688;2023-03-23T05:46:16;4.07;;;2.63;;
24216;SDS011;12356;49.386;8.688;2023-03-23T05:48:48;4.25;;;2.72;;
24216;SDS011;12356;49.386;8.688;2023-03-23T05:51:18;4.25;;;2.47;;
24216;SDS011;12356;49.386;8.688;2023-03-23T05:53:49;3.00;;;2.40;;
24216;SDS011;12356;49.386;8.688;2023-03-23T05:56:21;3.15;;;2.45;;
24216;SDS011;12356;49.386;8.688;2023-03-23T05:58:51;4.18;;;2.40;;
24216;SDS011;12356;49.386;8.688;2023-03-23T06:01:24;3.97;;;2.40;;
24216;SDS011;12356;49.386;8.688;2023-03-23T06:03:55;3.30;;;2.40;;
24216;SDS011;12356;49.386;8.688;2023-03-23T06:06:28;4.50;;;2.10;;
24216;SDS011;12356;49.386;8.688;2023-03-23T06:09:00;3.10;;;2.22;;
24216;SDS011;12356;49.386;8.688;2023-03-23T06:11:31;5.30;;;2.00;;
24216;SDS011;12356;49.386;8.688;2023-03-23T06:14:02;2.55;;;2.08;;
24216;SDS011;12356;49.386;8.688;2023-03-23T06:16:32;2.53;;;1.85;;
24216;SDS011;12356;49.386;8.688;2023-03-23T06:19:03;6.15;;;2.40;;
24216;SDS011;12356;49.386;8.688;2023-03-23T06:21:34;5.97;;;1.90;;
24216;SDS011;12356;49.386;8.688;2023-03-23T06:24:04;3.53;;;2.00;;
24216;SDS011;12356;49.386;8.688;2023-03-23T06:26:36;2.45;;;1.50;;
24216;SDS011;12356;49.386;8.688;2023-03-23T06:29:08;2.63;;;1.70;;
24216;SDS011;12356;49.386;8.688;2023-03-23T06:31:48;3.65;;;2.10;;
24216;SDS011;12356;49.386;8.688;2023-03-23T06:34:24;2.97;;;1.77;;
24216;SDS011;12356;49.386;8.688;2023-03-23T06:36:54;3.38;;;1.63;;
24216;SDS011;12356;49.386;8.688;2023-03-23T06:39:25;4.53;;;1.75;;
24216;SDS011;12356;49.386;8.688;2023-03-23T06:41:56;5.65;;;1.85;;
24216;SDS011;12356;49.386;8.688;2023-03-23T06:44:29;5.68;;;1.83;;
24216;SDS011;12356;49.386;8.688;2023-03-23T06:46:59;4.53;;;1.70;;
24216;SDS011;12356;49.386;8.688;2023-03-23T06:49:32;2.67;;;1.70;;
24216;SDS011;12356;49.386;8.688;2023-03-23T06:52:03;2.38;;;1.70;;
24216;SDS011;12356;49.386;8.688;2023-03-23T06:54:33;3.40;;;1.70;;
24216;SDS011;12356;49.386;8.688;2023-03-23T06:57:04;3.38;;;1.67;;
24216;SDS011;12356;49.386;8.688;2023-03-23T06:59:35;5.22;;;1.70;;
24216;SDS011;12356;49.386;8.688;2023-03-23T07:02:08;3.85;;;1.55;;
24216;SDS011;12356;49.386;8.688;2023-03-23T07:04:41;2.20;;;1.65;;
24216;SDS011;12356;49.386;8.688;2023-03-23T07:07:15;2.55;;;1.60;;
24216;SDS011;12356;49.386;8.688;2023-03-23T07:09:48;5.22;;;1.90;;
24216;SDS011;12356;49.386;8.688;2023-03-23T07:12:18;2.80;;;1.80;;
24216;SDS011;12356;49.386;8.688;2023-03-23T07:14:50;2.08;;;1.60;;
24216;SDS011;12356;49.386;8.688;2023-03-23T07:17:20;2.03;;;1.40;;
24216;SDS011;12356;49.386;8.688;2023-03-23T07:19:51;2.58;;;1.60;;
24216;SDS011;12356;49.386;8.688;2023-03-23T07:22:22;3.50;;;1.75;;
24216;SDS011;12356;49.386;8.688;2023-03-23T07:24:52;2.72;;;1.60;;
24216;SDS011;12356;49.386;8.688;2023-03-23T07:27:23;2.15;;;1.55;;
24216;SDS011;12356;49.386;8.688;2023-03-23T07:29:54;4.60;;;1.77;;
24216;SDS011;12356;49.386;8.688;2023-03-23T07:32:24;3.65;;;1.85;;
24216;SDS011;12356;49.386;8.688;2023-03-23T07:34:55;2.88;;;1.77;;
24216;SDS011;12356;49.386;8.688;2023-03-23T07:37:26;2.92;;;1.80;;
24216;SDS011;12356;49.386;8.688;2023-03-23T07:39:58;3.27;;;1.90;;
24216;SDS011;12356;49.386;8.688;2023-03-23T07:42:28;5.70;;;1.70;;
24216;SDS011;12356;49.386;8.688;2023-03-23T07:44:59;5.68;;;1.83;;
24216;SDS011;12356;49.386;8.688;2023-03-23T07:47:30;4.30;;;1.77;;
24216;SDS011;12356;49.386;8.688;2023-03-23T07:50:00;2.13;;;1.70;;
24216;SDS011;12356;49.386;8.688;2023-03-23T07:52:32;2.70;;;1.50;;
24216;SDS011;12356;49.386;8.688;2023-03-23T07:55:04;2.05;;;1.50;;
24216;SDS011;12356;49.386;8.688;2023-03-23T08:00:08;1.90;;;1.40;;
24216;SDS011;12356;49.386;8.688;2023-03-23T08:02:49;2.28;;;1.40;;
24216;SDS011;12356;49.386;8.688;2023-03-23T08:05:22;1.77;;;1.00;;
24216;SDS011;12356;49.386;8.688;2023-03-23T08:07:55;2.30;;;1.40;;
24216;SDS011;12356;49.386;8.688;2023-03-23T08:10:26;1.92;;;1.20;;
24216;SDS011;12356;49.386;8.688;2023-03-23T08:12:57;2.15;;;1.15;;
24216;SDS011;12356;49.386;8.688;2023-03-23T08:15:29;1.67;;;1.10;;
24216;SDS011;12356;49.386;8.688;2023-03-23T08:17:59;2.78;;;1.30;;
24216;SDS011;12356;49.386;8.688;2023-03-23T08:20:31;4.45;;;1.10;;
24216;SDS011;12356;49.386;8.688;2023-03-23T08:23:02;2.20;;;1.23;;
24216;SDS011;12356;49.386;8.688;2023-03-23T08:25:33;2.05;;;1.23;;
24216;SDS011;12356;49.386;8.688;2023-03-23T08:28:04;1.67;;;1.27;;
24216;SDS011;12356;49.386;8.688;2023-03-23T08:30:35;2.08;;;1.20;;
24216;SDS011;12356;49.386;8.688;2023-03-23T08:33:08;2.72;;;1.27;;
24216;SDS011;12356;49.386;8.688;2023-03-23T08:35:40;1.80;;;1.10;;
24216;SDS011;12356;49.386;8.688;2023-03-23T08:38:11;2.20;;;1.35;;
24216;SDS011;12356;49.386;8.688;2023-03-23T08:40:42;1.33;;;1.23;;
24216;SDS011;12356;49.386;8.688;2023-03-23T08:43:13;1.70;;;1.10;;
24216;SDS011;12356;49.386;8.688;2023-03-23T08:45:45;2.65;;;1.33;;
24216;SDS011;12356;49.386;8.688;2023-03-23T08:48:16;2.60;;;1.42;;
24216;SDS011;12356;49.386;8.688;2023-03-23T08:50:47;1.80;;;1.40;;
24216;SDS011;12356;49.386;8.688;2023-03-23T08:53:19;1.65;;;1.27;;
24216;SDS011;12356;49.386;8.688;2023-03-23T08:55:50;1.85;;;1.25;;
24216;SDS011;12356;49.386;8.688;2023-03-23T08:58:21;2.95;;;1.55;;
24216;SDS011;12356;49.386;8.688;2023-03-23T09:00:52;3.15;;;1.40;;
24216;SDS011;12356;49.386;8.688;2023-03-23T09:03:23;2.10;;;1.30;;
24216;SDS011;12356;49.386;8.688;2023-03-23T09:05:58;2.70;;;1.70;;
24216;SDS011;12356;49.386;8.688;2023-03-23T09:08:33;2.50;;;1.30;;
24216;SDS011;12356;49.386;8.688;2023-03-23T09:11:06;2.00;;;1.40;;
24216;SDS011;12356;49.386;8.688;2023-03-23T09:13:38;1.70;;;1.35;;
24216;SDS011;12356;49.386;8.688;2023-03-23T09:16:09;2.80;;;1.38;;
24216;SDS011;12356;49.386;8.688;2023-03-23T09:18:40;4.30;;;1.60;;
24216;SDS011;12356;49.386;8.688;2023-03-23T09:21:11;3.33;;;1.55;;
24216;SDS011;12356;49.386;8.688;2023-03-23T09:23:42;2.97;;;1.50;;
24216;SDS011;12356;49.386;8.688;2023-03-23T09:26:14;2.65;;;1.52;;
24216;SDS011;12356;49.386;8.688;2023-03-23T09:28:44;2.72;;;1.67;;
24216;SDS011;12356;49.386;8.688;2023-03-23T09:31:15;3.08;;;1.45;;
24216;SDS011;12356;49.386;8.688;2023-03-23T09:33:46;2.78;;;1.50;;
24216;SDS011;12356;49.386;8.688;2023-03-23T09:36:17;3.85;;;1.50;;
24216;SDS011;12356;49.386;8.688;2023-03-23T09:38:51;2.47;;;1.48;;
24216;SDS011;12356;49.386;8.688;2023-03-23T09:44:14;1.85;;;1.50;;
24216;SDS011;12356;49.386;8.688;2023-03-23T09:49:35;2.88;;;1.48;;
24216;SDS011;12356;49.386;8.688;2023-03-23T09:52:12;4.32;;;1.65;;
24216;SDS011;12356;49.386;8.688;2023-03-23T09:54:51;3.60;;;1.90;;
24216;SDS011;12356;49.386;8.688;2023-03-23T09:57:33;2.03;;;1.60;;
24216;SDS011;12356;49.386;8.688;2023-03-23T10:00:12;2.97;;;2.00;;
24216;SDS011;12356;49.386;8.688;2023-03-23T10:05:37;2.15;;;1.60;;
24216;SDS011;12356;49.386;8.688;2023-03-23T10:08:20;2.72;;;1.58;;
24216;SDS011;12356;49.386;8.688;2023-03-23T10:16:28;8.57;;;2.10;;
24216;SDS011;12356;49.386;8.688;2023-03-23T10:19:12;2.38;;;1.40;;
24216;SDS011;12356;49.386;8.688;2023-03-23T10:22:03;3.05;;;1.60;;
24216;SDS011;12356;49.386;8.688;2023-03-23T10:27:26;3.92;;;1.63;;
24216;SDS011;12356;49.386;8.688;2023-03-23T10:30:22;1.50;;;1.40;;
24216;SDS011;12356;49.386;8.688;2023-03-23T10:38:27;2.15;;;1.58;;
24216;SDS011;12356;49.386;8.688;2023-03-23T10:41:09;2.17;;;1.60;;
24216;SDS011;12356;49.386;8.688;2023-03-23T10:43:46;2.42;;;1.60;;
24216;SDS011;12356;49.386;8.688;2023-03-23T10:48:52;2.33;;;1.55;;
24216;SDS011;12356;49.386;8.688;2023-03-23T10:51:28;2.40;;;1.42;;
24216;SDS011;12356;49.386;8.688;2023-03-23T10:54:04;2.25;;;1.30;;
24216;SDS011;12356;49.386;8.688;2023-03-23T10:56:43;2.07;;;1.40;;
24216;SDS011;12356;49.386;8.688;2023-03-23T10:59:17;2.30;;;1.42;;
24216;SDS011;12356;49.386;8.688;2023-03-23T11:01:54;1.70;;;1.15;;
24216;SDS011;12356;49.386;8.688;2023-03-23T11:04:29;1.42;;;1.23;;
24216;SDS011;12356;49.386;8.688;2023-03-23T11:07:02;3.05;;;1.52;;
24216;SDS011;12356;49.386;8.688;2023-03-23T11:09:37;2.08;;;1.30;;
24216;SDS011;12356;49.386;8.688;2023-03-23T11:12:16;1.70;;;1.10;;
24216;SDS011;12356;49.386;8.688;2023-03-23T11:14:48;1.15;;;1.05;;
24216;SDS011;12356;49.386;8.688;2023-03-23T11:17:21;1.42;;;1.20;;
24216;SDS011;12356;49.386;8.688;2023-03-23T11:19:54;2.13;;;1.30;;
24216;SDS011;12356;49.386;8.688;2023-03-23T11:22:29;1.83;;;1.10;;
24216;SDS011;12356;49.386;8.688;2023-03-23T11:25:04;7.40;;;1.40;;
24216;SDS011;12356;49.386;8.688;2023-03-23T11:27:37;2.53;;;1.30;;
24216;SDS011;12356;49.386;8.688;2023-03-23T11:30:10;3.13;;;1.20;;
24216;SDS011;12356;49.386;8.688;2023-03-23T11:32:43;2.47;;;1.38;;
24216;SDS011;12356;49.386;8.688;2023-03-23T11:35:16;2.63;;;1.50;;
24216;SDS011;12356;49.386;8.688;2023-03-23T11:37:51;5.15;;;1.40;;
24216;SDS011;12356;49.386;8.688;2023-03-23T11:40:29;2.88;;;1.30;;
24216;SDS011;12356;49.386;8.688;2023-03-23T11:43:09;1.75;;;1.20;;
24216;SDS011;12356;49.386;8.688;2023-03-23T11:45:48;3.50;;;1.70;;
24216;SDS011;12356;49.386;8.688;2023-03-23T11:49:07;2.10;;;1.40;;
24216;SDS011;12356;49.386;8.688;2023-03-23T11:51:16;2.22;;;1.60;;
24216;SDS011;12356;49.386;8.688;2023-03-23T11:54:00;2.05;;;1.40;;
24216;SDS011;12356;49.386;8.688;2023-03-23T11:56:45;3.95;;;1.55;;
24216;SDS011;12356;49.386;8.688;2023-03-23T11:59:18;3.80;;;1.67;;
24216;SDS011;12356;49.386;8.688;2023-03-23T12:01:59;3.20;;;1.63;;
24216;SDS011;12356;49.386;8.688;2023-03-23T12:05:02;2.15;;;1.50;;
24216;SDS011;12356;49.386;8.688;2023-03-23T12:30:04;3.75;;;1.98;;
24216;SDS011;12356;49.386;8.688;2023-03-23T12:35:59;2.50;;;1.48;;
24216;SDS011;12356;49.386;8.688;2023-03-23T12:44:53;2.40;;;1.83;;
24216;SDS011;12356;49.386;8.688;2023-03-23T12:47:33;3.40;;;1.50;;
24216;SDS011;12356;49.386;8.688;2023-03-23T12:53:53;2.42;;;1.60;;
24216;SDS011;12356;49.386;8.688;2023-03-23T12:56:14;3.30;;;1.73;;
24216;SDS011;12356;49.386;8.688;2023-03-23T13:01:55;2.75;;;2.00;;
24216;SDS011;12356;49.386;8.688;2023-03-23T13:04:32;3.85;;;1.83;;
24216;SDS011;12356;49.386;8.688;2023-03-23T13:07:09;5.00;;;1.80;;
24216;SDS011;12356;49.386;8.688;2023-03-23T13:10:12;6.57;;;2.17;;
24216;SDS011;12356;49.386;8.688;2023-03-23T13:12:58;3.97;;;1.80;;
24216;SDS011;12356;49.386;8.688;2023-03-23T13:15:48;4.53;;;1.70;;
24216;SDS011;12356;49.386;8.688;2023-03-23T13:18:44;3.15;;;1.85;;
24216;SDS011;12356;49.386;8.688;2023-03-23T13:21:44;3.53;;;1.65;;
24216;SDS011;12356;49.386;8.688;2023-03-23T13:24:23;5.68;;;1.80;;
24216;SDS011;12356;49.386;8.688;2023-03-23T13:26:57;3.67;;;1.70;;
24216;SDS011;12356;49.386;8.688;2023-03-23T13:29:31;2.90;;;1.55;;
24216;SDS011;12356;49.386;8.688;2023-03-23T13:32:06;2.92;;;1.80;;
24216;SDS011;12356;49.386;8.688;2023-03-23T13:34:42;2.00;;;1.52;;
24216;SDS011;12356;49.386;8.688;2023-03-23T13:39:56;2.88;;;1.63;;
24216;SDS011;12356;49.386;8.688;2023-03-23T13:42:29;3.55;;;1.75;;
24216;SDS011;12356;49.386;8.688;2023-03-23T13:45:18;1.60;;;1.50;;
24216;SDS011;12356;49.386;8.688;2023-03-23T13:48:04;3.42;;;1.50;;
24216;SDS011;12356;49.386;8.688;2023-03-23T13:50:51;2.63;;;1.77;;
24216;SDS011;12356;49.386;8.688;2023-03-23T13:53:29;3.03;;;1.58;;
24216;SDS011;12356;49.386;8.688;2023-03-23T13:56:35;2.63;;;1.50;;
24216;SDS011;12356;49.386;8.688;2023-03-23T13:59:17;3.95;;;1.48;;
24216;SDS011;12356;49.386;8.688;2023-03-23T14:02:27;2.28;;;1.38;;
24216;SDS011;12356;49.386;8.688;2023-03-23T14:07:51;4.60;;;1.80;;
24216;SDS011;12356;49.386;8.688;2023-03-23T14:10:23;2.45;;;1.45;;
24216;SDS011;12356;49.386;8.688;2023-03-23T14:12:55;7.85;;;1.75;;
24216;SDS011;12356;49.386;8.688;2023-03-23T14:15:28;2.53;;;1.65;;
24216;SDS011;12356;49.386;8.688;2023-03-23T14:18:01;4.18;;;1.85;;
24216;SDS011;12356;49.386;8.688;2023-03-23T14:20:34;1.75;;;1.50;;
24216;SDS011;12356;49.386;8.688;2023-03-23T14:23:13;1.75;;;1.48;;
24216;SDS011;12356;49.386;8.688;2023-03-23T14:25:54;1.80;;;1.50;;
24216;SDS011;12356;49.386;8.688;2023-03-23T14:28:30;2.15;;;1.50;;
24216;SDS011;12356;49.386;8.688;2023-03-23T14:31:02;3.60;;;1.70;;
24216;SDS011;12356;49.386;8.688;2023-03-23T14:33:33;3.25;;;1.60;;
24216;SDS011;12356;49.386;8.688;2023-03-23T14:36:04;2.15;;;1.65;;
24216;SDS011;12356;49.386;8.688;2023-03-23T14:38:35;2.58;;;1.60;;
24216;SDS011;12356;49.386;8.688;2023-03-23T14:41:06;3.53;;;1.80;;
24216;SDS011;12356;49.386;8.688;2023-03-23T14:43:41;2.53;;;1.65;;
24216;SDS011;12356;49.386;8.688;2023-03-23T14:46:11;2.30;;;1.60;;
24216;SDS011;12356;49.386;8.688;2023-03-23T14:48:43;3.43;;;1.80;;
24216;SDS011;12356;49.386;8.688;2023-03-23T14:51:17;3.00;;;1.70;;
24216;SDS011;12356;49.386;8.688;2023-03-23T14:53:49;3.33;;;1.50;;
24216;SDS011;12356;49.386;8.688;2023-03-23T14:56:23;2.60;;;1.70;;
24216;SDS011;12356;49.386;8.688;2023-03-23T14:59:02;6.93;;;1.80;;
24216;SDS011;12356;49.386;8.688;2023-03-23T15:01:35;4.15;;;1.80;;
24216;SDS011;12356;49.386;8.688;2023-03-23T15:06:45;3.47;;;1.55;;
24216;SDS011;12356;49.386;8.688;2023-03-23T15:09:25;3.08;;;1.67;;
24216;SDS011;12356;49.386;8.688;2023-03-23T15:11:59;1.77;;;1.40;;
24216;SDS011;12356;49.386;8.688;2023-03-23T15:14:43;2.30;;;1.60;;
24216;SDS011;12356;49.386;8.688;2023-03-23T15:17:18;2.45;;;1.67;;
24216;SDS011;12356;49.386;8.688;2023-03-23T15:19:52;3.15;;;1.75;;
24216;SDS011;12356;49.386;8.688;2023-03-23T15:22:25;2.78;;;1.83;;
24216;SDS011;12356;49.386;8.688;2023-03-23T15:25:17;2.63;;;1.70;;
24216;SDS011;12356;49.386;8.688;2023-03-23T15:27:53;3.08;;;1.75;;
24216;SDS011;12356;49.386;8.688;2023-03-23T15:30:30;2.78;;;1.83;;
24216;SDS011;12356;49.386;8.688;2023-03-23T15:33:03;3.80;;;1.92;;
24216;SDS011;12356;49.386;8.688;2023-03-23T15:35:40;4.07;;;1.90;;
24216;SDS011;12356;49.386;8.688;2023-03-23T15:38:23;5.28;;;2.40;;
24216;SDS011;12356;49.386;8.688;2023-03-23T15:40:56;2.55;;;2.20;;
24216;SDS011;12356;49.386;8.688;2023-03-23T15:43:36;2.70;;;2.08;;
24216;SDS011;12356;49.386;8.688;2023-03-23T15:46:23;4.72;;;2.40;;
24216;SDS011;12356;49.386;8.688;2023-03-23T15:51:29;4.40;;;3.28;;
24216;SDS011;12356;49.386;8.688;2023-03-23T15:54:00;5.10;;;3.00;;
24216;SDS011;12356;49.386;8.688;2023-03-23T15:56:31;5.40;;;2.92;;
24216;SDS011;12356;49.386;8.688;2023-03-23T15:59:02;4.25;;;1.98;;
24216;SDS011;12356;49.386;8.688;2023-03-23T16:01:32;3.80;;;1.98;;
24216;SDS011;12356;49.386;8.688;2023-03-23T16:04:10;3.13;;;2.03;;
24216;SDS011;12356;49.386;8.688;2023-03-23T16:06:43;2.38;;;1.60;;
24216;SDS011;12356;49.386;8.688;2023-03-23T16:09:15;2.70;;;1.60;;
24216;SDS011;12356;49.386;8.688;2023-03-23T16:11:48;4.15;;;1.60;;
24216;SDS011;12356;49.386;8.688;2023-03-23T16:14:18;3.45;;;1.90;;
24216;SDS011;12356;49.386;8.688;2023-03-23T16:16:49;4.55;;;2.10;;
24216;SDS011;12356;49.386;8.688;2023-03-23T16:19:21;2.47;;;1.80;;
24216;SDS011;12356;49.386;8.688;2023-03-23T16:21:53;3.15;;;1.90;;
24216;SDS011;12356;49.386;8.688;2023-03-23T16:24:23;2.38;;;1.80;;
24216;SDS011;12356;49.386;8.688;2023-03-23T16:26:54;2.28;;;1.70;;
24216;SDS011;12356;49.386;8.688;2023-03-23T16:29:25;1.80;;;1.70;;
24216;SDS011;12356;49.386;8.688;2023-03-23T16:31:56;2.97;;;1.90;;
24216;SDS011;12356;49.386;8.688;2023-03-23T16:34:27;2.22;;;1.80;;
24216;SDS011;12356;49.386;8.688;2023-03-23T16:37:01;2.92;;;1.95;;
24216;SDS011;12356;49.386;8.688;2023-03-23T16:39:32;3.15;;;1.90;;
24216;SDS011;12356;49.386;8.688;2023-03-23T16:42:03;3.03;;;2.00;;
24216;SDS011;12356;49.386;8.688;2023-03-23T16:44:34;5.13;;;2.30;;
24216;SDS011;12356;49.386;8.688;2023-03-23T16:47:04;4.43;;;2.35;;
24216;SDS011;12356;49.386;8.688;2023-03-23T16:49:35;4.15;;;2.17;;
24216;SDS011;12356;49.386;8.688;2023-03-23T16:52:05;4.25;;;2.63;;
24216;SDS011;12356;49.386;8.688;2023-03-23T16:54:36;3.90;;;2.25;;